PWSweather.com
Personal Weather Stations
Station Observations
KNYSIDNE1
East Masonville, Masonville, NY 13804

East MasonvilleMasonville, NY 13804

Lat: 42.26, Lon: -75.31

Elevation: 1581

Station Type: Davis WMII

http://eastmasonvilleweather.com

Latest ConditionsUpdated 6:00:01 PM EST Sunday, Dec 9, 2018
Currently Today's Max Today's Min Today's Average
Temperature 23.5°F-4.7°C 33.0°F0.6°C 11.8°F-11.2°C 20.8°F-6.2°C
Dew Point 17.7°F-7.9°C 21.6°F-5.8°C 9.0°F-12.8°C 14.7°F-9.6°C
Winds Calm Calm 6.9 mph -11.1 kmh - - 0.9 mph 1.4 kmh
Wind Gusts -- 11.5 mph18.5 kmh - -
Humidity 78% 99% 56% 78%
Pressure 30.24 in1024.0 mb 30.55 in1034.5 mb 30.24 in1024.0 mb -
Hour Temp Dew Point Humidity Winds Wind Gusts Pressure Precip Precip Rate Daily Precip Total
06:00 PM 23.5°F-4.7°C 17.7°F-7.9°C 78% Calm Calm -- 30.24 in1024.0 mb - 0.00 in0.0 mm 0.00 in0.0 mm
05:50 PM 24.2°F-4.3°C 17.7°F-7.9°C 76% Calm Calm -- 30.25 in1024.4 mb - 0.00 in0.0 mm 0.00 in0.0 mm
05:40 PM 25.0°F-3.9°C 18.5°F-7.5°C 76% Calm Calm -- 30.25 in1024.4 mb - 0.00 in0.0 mm 0.00 in0.0 mm
05:30 PM 25.7°F-3.5°C 18.9°F-7.3°C 75% Calm Calm -- 30.25 in1024.4 mb - 0.00 in0.0 mm 0.00 in0.0 mm
05:20 PM 26.3°F-3.2°C 18.8°F-7.3°C 73% Calm Calm -- 30.25 in1024.4 mb - 0.00 in0.0 mm 0.00 in0.0 mm
05:10 PM 27.0°F-2.8°C 18.5°F-7.5°C 70% Calm Calm -- 30.25 in1024.4 mb - 0.00 in0.0 mm 0.00 in0.0 mm
05:00 PM 27.7°F-2.4°C 18.1°F-7.7°C 67% 1.2 mph SSW1.9 kmh SSW 2.3 mph3.7 kmh 30.25 in1024.4 mb - 0.00 in0.0 mm 0.00 in0.0 mm
04:50 PM 28.2°F-2.1°C 18.0°F-7.8°C 65% 1.2 mph SSW1.9 kmh SSW 2.3 mph3.7 kmh 30.25 in1024.4 mb - 0.00 in0.0 mm 0.00 in0.0 mm
04:40 PM 28.6°F-1.9°C 18.0°F-7.8°C 64% Calm Calm 2.3 mph3.7 kmh 30.26 in1024.7 mb - 0.00 in0.0 mm 0.00 in0.0 mm
04:30 PM 29.0°F-1.7°C 18.3°F-7.6°C 64% 1.2 mph WSW1.9 kmh WSW 2.3 mph3.7 kmh 30.25 in1024.4 mb - 0.00 in0.0 mm 0.00 in0.0 mm
04:20 PM 29.4°F-1.4°C 18.0°F-7.8°C 62% 1.2 mph SW1.9 kmh SW 2.3 mph3.7 kmh 30.25 in1024.4 mb - 0.00 in0.0 mm 0.00 in0.0 mm
04:10 PM 29.8°F-1.2°C 18.0°F-7.8°C 61% 1.2 mph SW1.9 kmh SW 2.3 mph3.7 kmh 30.26 in1024.7 mb - 0.00 in0.0 mm 0.00 in0.0 mm
04:00 PM 30.2°F-1.0°C 18.4°F-7.6°C 61% 1.2 mph SW1.9 kmh SW 3.5 mph5.6 kmh 30.26 in1024.7 mb - 0.00 in0.0 mm 0.00 in0.0 mm
03:50 PM 30.5°F-0.8°C 17.9°F-7.8°C 59% 1.2 mph WSW1.9 kmh WSW 3.5 mph5.6 kmh 30.26 in1024.7 mb - 0.00 in0.0 mm 0.00 in0.0 mm
03:40 PM 30.8°F-0.7°C 18.1°F-7.7°C 59% 3.5 mph SW5.6 kmh SW 5.8 mph9.3 kmh 30.26 in1024.7 mb - 0.00 in0.0 mm 0.00 in0.0 mm
03:30 PM 31.0°F-0.6°C 18.0°F-7.8°C 58% 2.3 mph SSW3.7 kmh SSW 5.8 mph9.3 kmh 30.27 in1025.1 mb - 0.00 in0.0 mm 0.00 in0.0 mm
03:20 PM 31.2°F-0.4°C 18.2°F-7.7°C 58% 2.3 mph SSW3.7 kmh SSW 3.5 mph5.6 kmh 30.27 in1025.1 mb - 0.00 in0.0 mm 0.00 in0.0 mm
03:10 PM 31.4°F-0.3°C 18.7°F-7.4°C 59% 1.2 mph S1.9 kmh S 3.5 mph5.6 kmh 30.27 in1025.1 mb - 0.00 in0.0 mm 0.00 in0.0 mm
03:00 PM 31.5°F-0.3°C 18.8°F-7.3°C 59% 1.2 mph S1.9 kmh S 4.6 mph7.4 kmh 30.28 in1025.4 mb - 0.00 in0.0 mm 0.00 in0.0 mm
02:50 PM 31.6°F-0.2°C 18.9°F-7.3°C 59% 1.2 mph SW1.9 kmh SW 2.3 mph3.7 kmh 30.29 in1025.7 mb - 0.00 in0.0 mm 0.00 in0.0 mm
02:40 PM 31.6°F-0.2°C 18.9°F-7.3°C 59% 1.2 mph SW1.9 kmh SW 2.3 mph3.7 kmh 30.29 in1025.7 mb - 0.00 in0.0 mm 0.00 in0.0 mm
02:30 PM 31.6°F-0.2°C 18.1°F-7.7°C 57% 1.2 mph SW1.9 kmh SW 2.3 mph3.7 kmh 30.30 in1026.1 mb - 0.00 in0.0 mm 0.00 in0.0 mm
02:20 PM 31.7°F-0.2°C 18.2°F-7.7°C 57% 1.2 mph W1.9 kmh W 2.3 mph3.7 kmh 30.30 in1026.1 mb - 0.00 in0.0 mm 0.00 in0.0 mm
02:10 PM 31.7°F-0.2°C 18.2°F-7.7°C 57% 1.2 mph SSW1.9 kmh SSW 2.3 mph3.7 kmh 30.30 in1026.1 mb - 0.00 in0.0 mm 0.00 in0.0 mm
02:00 PM 32.0°F0.0°C 18.0°F-7.8°C 56% 3.5 mph WNW5.6 kmh WNW 4.6 mph7.4 kmh 30.31 in1026.4 mb - 0.00 in0.0 mm 0.00 in0.0 mm
01:50 PM 32.0°F0.0°C 18.9°F-7.3°C 58% 3.5 mph SSW5.6 kmh SSW 6.9 mph11.1 kmh 30.31 in1026.4 mb - 0.00 in0.0 mm 0.00 in0.0 mm
01:40 PM 31.4°F-0.3°C 19.1°F-7.2°C 60% 1.2 mph WSW1.9 kmh WSW 1.2 mph1.9 kmh 30.32 in1026.8 mb - 0.00 in0.0 mm 0.00 in0.0 mm
01:30 PM 30.7°F-0.7°C 19.2°F-7.1°C 62% 4.6 mph SW7.4 kmh SW 8.1 mph13.0 kmh 30.33 in1027.1 mb - 0.00 in0.0 mm 0.00 in0.0 mm
01:20 PM 30.2°F-1.0°C 19.5°F-6.9°C 64% 6.9 mph SSW11.1 kmh SSW 11.5 mph18.5 kmh 30.33 in1027.1 mb - 0.00 in0.0 mm 0.00 in0.0 mm
01:10 PM 30.1°F-1.1°C 18.6°F-7.4°C 62% 3.5 mph SW5.6 kmh SW 5.8 mph9.3 kmh 30.34 in1027.4 mb - 0.00 in0.0 mm 0.00 in0.0 mm
01:00 PM 30.2°F-1.0°C 19.1°F-7.2°C 63% 2.3 mph SSW3.7 kmh SSW 5.8 mph9.3 kmh 30.34 in1027.4 mb - 0.00 in0.0 mm 0.00 in0.0 mm
12:50 PM 30.6°F-0.8°C 18.8°F-7.3°C 61% 2.3 mph SW3.7 kmh SW 3.5 mph5.6 kmh 30.35 in1027.8 mb - 0.00 in0.0 mm 0.00 in0.0 mm
12:40 PM 31.3°F-0.4°C 19.0°F-7.2°C 60% 3.5 mph SW5.6 kmh SW 4.6 mph7.4 kmh 30.35 in1027.8 mb - 0.00 in0.0 mm 0.00 in0.0 mm
12:30 PM 31.7°F-0.2°C 19.4°F-7.0°C 60% 4.6 mph SSW7.4 kmh SSW 5.8 mph9.3 kmh 30.35 in1027.8 mb - 0.00 in0.0 mm 0.00 in0.0 mm
12:20 PM 31.8°F-0.1°C 20.3°F-6.5°C 62% 3.5 mph SW5.6 kmh SW 3.5 mph5.6 kmh 30.36 in1028.1 mb - 0.00 in0.0 mm 0.00 in0.0 mm
12:10 PM 32.4°F0.2°C 19.3°F-7.1°C 58% 4.6 mph WNW7.4 kmh WNW 4.6 mph7.4 kmh 30.36 in1028.1 mb - 0.00 in0.0 mm 0.00 in0.0 mm
12:00 PM 33.0°F0.6°C 19.8°F-6.8°C 58% 3.5 mph SSW5.6 kmh SSW 4.6 mph7.4 kmh 30.37 in1028.4 mb - 0.00 in0.0 mm 0.00 in0.0 mm
11:50 AM 32.9°F0.5°C 20.5°F-6.4°C 60% 1.2 mph NW1.9 kmh NW 2.3 mph3.7 kmh 30.37 in1028.4 mb - 0.00 in0.0 mm 0.00 in0.0 mm
11:40 AM 32.4°F0.2°C 20.8°F-6.2°C 62% 4.6 mph S7.4 kmh S 8.1 mph13.0 kmh 30.38 in1028.8 mb - 0.00 in0.0 mm 0.00 in0.0 mm
11:30 AM 31.5°F-0.3°C 20.7°F-6.3°C 64% 1.2 mph W1.9 kmh W 2.3 mph3.7 kmh 30.39 in1029.1 mb - 0.00 in0.0 mm 0.00 in0.0 mm
11:20 AM 31.2°F-0.4°C 20.8°F-6.2°C 65% 2.3 mph W3.7 kmh W 2.3 mph3.7 kmh 30.40 in1029.5 mb - 0.00 in0.0 mm 0.00 in0.0 mm
11:10 AM 30.7°F-0.7°C 21.4°F-5.9°C 68% 2.3 mph WSW3.7 kmh WSW 2.3 mph3.7 kmh 30.41 in1029.8 mb - 0.00 in0.0 mm 0.00 in0.0 mm
11:00 AM 30.2°F-1.0°C 21.6°F-5.8°C 70% 1.2 mph S1.9 kmh S 2.3 mph3.7 kmh 30.41 in1029.8 mb - 0.00 in0.0 mm 0.00 in0.0 mm
10:50 AM 29.4°F-1.4°C 21.5°F-5.8°C 72% 2.3 mph W3.7 kmh W 2.3 mph3.7 kmh 30.43 in1030.5 mb - 0.00 in0.0 mm 0.00 in0.0 mm
10:40 AM 28.5°F-1.9°C 21.2°F-6.0°C 74% Calm Calm 1.2 mph1.9 kmh 30.44 in1030.8 mb - 0.00 in0.0 mm 0.00 in0.0 mm
10:30 AM 27.4°F-2.6°C 21.2°F-6.0°C 77% 3.5 mph S5.6 kmh S 3.5 mph5.6 kmh 30.44 in1030.8 mb - 0.00 in0.0 mm 0.00 in0.0 mm
10:20 AM 26.2°F-3.2°C 20.9°F-6.2°C 80% 1.2 mph S1.9 kmh S 1.2 mph1.9 kmh 30.45 in1031.2 mb - 0.00 in0.0 mm 0.00 in0.0 mm
10:10 AM 24.7°F-4.1°C 20.6°F-6.3°C 84% 1.2 mph S1.9 kmh S 2.3 mph3.7 kmh 30.45 in1031.2 mb - 0.00 in0.0 mm 0.00 in0.0 mm
10:00 AM 23.3°F-4.8°C 19.7°F-6.8°C 86% 1.2 mph S1.9 kmh S 3.5 mph5.6 kmh 30.45 in1031.2 mb - 0.00 in0.0 mm 0.00 in0.0 mm
09:50 AM 21.8°F-5.7°C 18.8°F-7.3°C 88% Calm Calm -- 30.45 in1031.2 mb - 0.00 in0.0 mm 0.00 in0.0 mm
09:40 AM 20.6°F-6.3°C 18.1°F-7.7°C 90% 2.3 mph S3.7 kmh S 3.5 mph5.6 kmh 30.46 in1031.5 mb - 0.00 in0.0 mm 0.00 in0.0 mm
09:30 AM 19.3°F-7.1°C 17.1°F-8.3°C 91% 1.2 mph S1.9 kmh S 2.3 mph3.7 kmh 30.46 in1031.5 mb - 0.00 in0.0 mm 0.00 in0.0 mm
09:20 AM 17.9°F-7.8°C 15.9°F-8.9°C 92% Calm Calm 1.2 mph1.9 kmh 30.45 in1031.2 mb - 0.00 in0.0 mm 0.00 in0.0 mm
09:10 AM 16.2°F-8.8°C 14.3°F-9.8°C 92% 1.2 mph S1.9 kmh S 2.3 mph3.7 kmh 30.46 in1031.5 mb - 0.00 in0.0 mm 0.00 in0.0 mm
09:00 AM 14.8°F-9.6°C 12.6°F-10.8°C 91% Calm Calm 1.2 mph1.9 kmh 30.46 in1031.5 mb - 0.00 in0.0 mm 0.00 in0.0 mm
08:50 AM 13.9°F-10.1°C 11.8°F-11.2°C 91% Calm Calm -- 30.46 in1031.5 mb - 0.00 in0.0 mm 0.00 in0.0 mm
08:40 AM 13.0°F-10.6°C 10.9°F-11.7°C 91% Calm Calm -- 30.46 in1031.5 mb - 0.00 in0.0 mm 0.00 in0.0 mm
08:30 AM 12.3°F-10.9°C 10.0°F-12.2°C 90% Calm Calm -- 30.47 in1031.8 mb - 0.00 in0.0 mm 0.00 in0.0 mm
08:20 AM 12.1°F-11.1°C 9.5°F-12.5°C 89% Calm Calm -- 30.47 in1031.8 mb - 0.00 in0.0 mm 0.00 in0.0 mm
08:10 AM 12.0°F-11.1°C 9.4°F-12.6°C 89% Calm Calm -- 30.47 in1031.8 mb - 0.00 in0.0 mm 0.00 in0.0 mm
08:00 AM 12.1°F-11.1°C 9.5°F-12.5°C 89% Calm Calm -- 30.48 in1032.2 mb - 0.00 in0.0 mm 0.00 in0.0 mm
07:50 AM 12.2°F-11.0°C 12.0°F-11.1°C 99% Calm Calm -- 30.48 in1032.2 mb - 0.00 in0.0 mm 0.00 in0.0 mm
07:40 AM 12.1°F-11.1°C 9.7°F-12.4°C 90% Calm Calm -- 30.48 in1032.2 mb - 0.00 in0.0 mm 0.00 in0.0 mm
07:30 AM 12.0°F-11.1°C 9.6°F-12.4°C 90% Calm Calm -- 30.48 in1032.2 mb - 0.00 in0.0 mm 0.00 in0.0 mm
07:20 AM 11.8°F-11.2°C 9.2°F-12.7°C 89% Calm Calm -- 30.48 in1032.2 mb - 0.00 in0.0 mm 0.00 in0.0 mm
07:10 AM 11.9°F-11.2°C 9.5°F-12.5°C 90% Calm Calm -- 30.49 in1032.5 mb - 0.00 in0.0 mm 0.00 in0.0 mm
07:00 AM 11.8°F-11.2°C 9.2°F-12.7°C 89% Calm Calm -- 30.48 in1032.2 mb - 0.00 in0.0 mm 0.00 in0.0 mm
06:50 AM 11.8°F-11.2°C 9.2°F-12.7°C 89% Calm Calm -- 30.48 in1032.2 mb - 0.00 in0.0 mm 0.00 in0.0 mm
06:40 AM 11.8°F-11.2°C 9.2°F-12.7°C 89% Calm Calm -- 30.48 in1032.2 mb - 0.00 in0.0 mm 0.00 in0.0 mm
06:30 AM 11.9°F-11.2°C 9.0°F-12.8°C 88% Calm Calm -- 30.48 in1032.2 mb - 0.00 in0.0 mm 0.00 in0.0 mm
06:20 AM 12.1°F-11.1°C 9.5°F-12.5°C 89% Calm Calm -- 30.48 in1032.2 mb - 0.00 in0.0 mm 0.00 in0.0 mm
06:10 AM 12.2°F-11.0°C 9.3°F-12.6°C 88% Calm Calm -- 30.48 in1032.2 mb - 0.00 in0.0 mm 0.00 in0.0 mm
06:00 AM 12.5°F-10.8°C 9.9°F-12.3°C 89% Calm Calm -- 30.48 in1032.2 mb - 0.00 in0.0 mm 0.00 in0.0 mm
05:50 AM 12.6°F-10.8°C 10.0°F-12.2°C 89% Calm Calm -- 30.48 in1032.2 mb - 0.00 in0.0 mm 0.00 in0.0 mm
05:40 AM 12.8°F-10.7°C 10.2°F-12.1°C 89% Calm Calm -- 30.48 in1032.2 mb - 0.00 in0.0 mm 0.00 in0.0 mm
05:30 AM 13.0°F-10.6°C 10.4°F-12.0°C 89% Calm Calm -- 30.48 in1032.2 mb - 0.00 in0.0 mm 0.00 in0.0 mm
05:20 AM 13.1°F-10.5°C 10.5°F-11.9°C 89% Calm Calm -- 30.48 in1032.2 mb - 0.00 in0.0 mm 0.00 in0.0 mm
05:10 AM 13.2°F-10.4°C 10.5°F-11.9°C 89% Calm Calm -- 30.48 in1032.2 mb - 0.00 in0.0 mm 0.00 in0.0 mm
05:00 AM 13.2°F-10.4°C 10.6°F-11.9°C 89% Calm Calm -- 30.48 in1032.2 mb - 0.00 in0.0 mm 0.00 in0.0 mm
04:50 AM 13.2°F-10.4°C 10.8°F-11.8°C 90% Calm Calm -- 30.48 in1032.2 mb - 0.00 in0.0 mm 0.00 in0.0 mm
04:40 AM 13.2°F-10.4°C 10.8°F-11.8°C 90% Calm Calm -- 30.48 in1032.2 mb - 0.00 in0.0 mm 0.00 in0.0 mm
04:30 AM 13.2°F-10.4°C 10.8°F-11.8°C 90% Calm Calm -- 30.48 in1032.2 mb - 0.00 in0.0 mm 0.00 in0.0 mm
04:20 AM 13.1°F-10.5°C 10.7°F-11.8°C 90% Calm Calm -- 30.49 in1032.5 mb - 0.00 in0.0 mm 0.00 in0.0 mm
04:10 AM 13.1°F-10.5°C 10.5°F-11.9°C 89% Calm Calm -- 30.49 in1032.5 mb - 0.00 in0.0 mm 0.00 in0.0 mm
04:00 AM 13.1°F-10.5°C 10.7°F-11.8°C 90% Calm Calm -- 30.50 in1032.8 mb - 0.00 in0.0 mm 0.00 in0.0 mm
03:50 AM 13.0°F-10.6°C 10.6°F-11.9°C 90% Calm Calm -- 30.50 in1032.8 mb - 0.00 in0.0 mm 0.00 in0.0 mm
03:40 AM 12.9°F-10.6°C 10.5°F-11.9°C 90% Calm Calm -- 30.51 in1033.2 mb - 0.00 in0.0 mm 0.00 in0.0 mm
03:30 AM 12.8°F-10.7°C 10.2°F-12.1°C 89% Calm Calm -- 30.51 in1033.2 mb - 0.00 in0.0 mm 0.00 in0.0 mm
03:20 AM 13.0°F-10.6°C 10.4°F-12.0°C 89% Calm Calm -- 30.52 in1033.5 mb - 0.00 in0.0 mm 0.00 in0.0 mm
03:10 AM 13.0°F-10.6°C 10.4°F-12.0°C 89% Calm Calm -- 30.52 in1033.5 mb - 0.00 in0.0 mm 0.00 in0.0 mm
03:00 AM 13.3°F-10.4°C 10.7°F-11.8°C 89% Calm Calm -- 30.52 in1033.5 mb - 0.00 in0.0 mm 0.00 in0.0 mm
02:50 AM 13.5°F-10.3°C 11.1°F-11.6°C 90% Calm Calm -- 30.53 in1033.9 mb - 0.00 in0.0 mm 0.00 in0.0 mm
02:40 AM 13.3°F-10.4°C 10.9°F-11.7°C 90% Calm Calm -- 30.53 in1033.9 mb - 0.00 in0.0 mm 0.00 in0.0 mm
02:30 AM 13.1°F-10.5°C 10.7°F-11.8°C 90% Calm Calm -- 30.54 in1034.2 mb - 0.00 in0.0 mm 0.00 in0.0 mm
02:20 AM 12.8°F-10.7°C 10.7°F-11.8°C 91% Calm Calm -- 30.54 in1034.2 mb - 0.00 in0.0 mm 0.00 in0.0 mm
02:10 AM 12.3°F-10.9°C 9.7°F-12.4°C 89% Calm Calm -- 30.54 in1034.2 mb - 0.00 in0.0 mm 0.00 in0.0 mm
02:00 AM 12.2°F-11.0°C 9.6°F-12.4°C 89% Calm Calm -- 30.53 in1033.9 mb - 0.00 in0.0 mm 0.00 in0.0 mm
01:50 AM 12.2°F-11.0°C 9.6°F-12.4°C 89% Calm Calm -- 30.54 in1034.2 mb - 0.00 in0.0 mm 0.00 in0.0 mm
01:40 AM 12.2°F-11.0°C 9.3°F-12.6°C 88% Calm Calm -- 30.54 in1034.2 mb - 0.00 in0.0 mm 0.00 in0.0 mm
01:30 AM 12.6°F-10.8°C 9.7°F-12.4°C 88% Calm Calm -- 30.54 in1034.2 mb - 0.00 in0.0 mm 0.00 in0.0 mm
01:20 AM 12.8°F-10.7°C 9.7°F-12.4°C 87% Calm Calm -- 30.54 in1034.2 mb - 0.00 in0.0 mm 0.00 in0.0 mm
01:10 AM 13.3°F-10.4°C 10.2°F-12.1°C 87% Calm Calm -- 30.54 in1034.2 mb - 0.00 in0.0 mm 0.00 in0.0 mm
01:00 AM 13.7°F-10.2°C 10.8°F-11.8°C 88% Calm Calm -- 30.53 in1033.9 mb - 0.00 in0.0 mm 0.00 in0.0 mm
12:50 AM 14.1°F-9.9°C 11.2°F-11.6°C 88% Calm Calm -- 30.54 in1034.2 mb - 0.00 in0.0 mm 0.00 in0.0 mm
12:40 AM 14.5°F-9.7°C 11.3°F-11.5°C 87% Calm Calm -- 30.54 in1034.2 mb - 0.00 in0.0 mm 0.00 in0.0 mm
12:30 AM 15.1°F-9.4°C 12.0°F-11.1°C 87% Calm Calm -- 30.54 in1034.2 mb - 0.00 in0.0 mm 0.00 in0.0 mm
12:20 AM 15.5°F-9.2°C 12.6°F-10.8°C 88% Calm Calm -- 30.55 in1034.5 mb - 0.00 in0.0 mm 0.00 in0.0 mm
12:10 AM 16.1°F-8.8°C 12.7°F-10.7°C 86% Calm Calm -- 30.55 in1034.5 mb - 0.00 in0.0 mm 0.00 in0.0 mm
12:00 AM 17.0°F-8.3°C 13.8°F-10.1°C 87% Calm Calm -- 30.55 in1034.5 mb - 0.00 in0.0 mm 0.00 in0.0 mm